sensor_id;sensor_type;location;lat;lon;timestamp;pressure;altitude;pressure_sealevel;temperature;humidity
75747;BME280;64363;52.198;21.020;2023-04-01T00:00:03;98465.41;;;10.05;94.00
75747;BME280;64363;52.198;21.020;2023-04-01T00:02:29;98478.81;;;10.04;93.87
75747;BME280;64363;52.198;21.020;2023-04-01T00:04:55;98463.09;;;9.99;94.30
75747;BME280;64363;52.198;21.020;2023-04-01T00:07:21;98468.81;;;9.93;94.58
75747;BME280;64363;52.198;21.020;2023-04-01T00:09:46;98468.31;;;9.86;95.04
75747;BME280;64363;52.198;21.020;2023-04-01T00:12:12;98458.34;;;9.90;95.28
75747;BME280;64363;52.198;21.020;2023-04-01T00:14:38;98448.72;;;9.87;95.33
75747;BME280;64363;52.198;21.020;2023-04-01T00:17:05;98449.31;;;9.93;94.71
75747;BME280;64363;52.198;21.020;2023-04-01T00:19:31;98442.31;;;9.76;95.91
75747;BME280;64363;52.198;21.020;2023-04-01T00:21:58;98449.16;;;9.66;96.25
75747;BME280;64363;52.198;21.020;2023-04-01T00:24:24;98455.22;;;9.68;96.66
75747;BME280;64363;52.198;21.020;2023-04-01T00:26:50;98445.69;;;9.64;97.18
75747;BME280;64363;52.198;21.020;2023-04-01T00:29:15;98434.38;;;9.60;97.53
75747;BME280;64363;52.198;21.020;2023-04-01T00:31:41;98431.06;;;9.57;97.90
75747;BME280;64363;52.198;21.020;2023-04-01T00:34:06;98428.38;;;9.57;98.16
75747;BME280;64363;52.198;21.020;2023-04-01T00:36:32;98430.09;;;9.58;98.14
75747;BME280;64363;52.198;21.020;2023-04-01T00:38:58;98430.28;;;9.55;98.13
75747;BME280;64363;52.198;21.020;2023-04-01T00:41:27;98423.53;;;9.49;98.31
75747;BME280;64363;52.198;21.020;2023-04-01T00:44:20;98428.56;;;9.54;98.27
75747;BME280;64363;52.198;21.020;2023-04-01T00:46:47;98432.19;;;9.53;98.14
75747;BME280;64363;52.198;21.020;2023-04-01T00:49:14;98440.41;;;9.48;98.87
75747;BME280;64363;52.198;21.020;2023-04-01T00:51:42;98441.34;;;9.47;99.22
75747;BME280;64363;52.198;21.020;2023-04-01T00:54:11;98444.88;;;9.48;98.68
75747;BME280;64363;52.198;21.020;2023-04-01T00:56:45;98438.03;;;9.44;98.63
75747;BME280;64363;52.198;21.020;2023-04-01T00:59:16;98438.13;;;9.42;99.25
75747;BME280;64363;52.198;21.020;2023-04-01T01:01:44;98446.69;;;9.47;99.32
75747;BME280;64363;52.198;21.020;2023-04-01T01:04:39;98447.47;;;9.49;98.77
75747;BME280;64363;52.198;21.020;2023-04-01T01:15:26;98429.47;;;9.68;97.82
75747;BME280;64363;52.198;21.020;2023-04-01T01:36:50;98429.50;;;9.53;98.20
75747;BME280;64363;52.198;21.020;2023-04-01T01:39:19;98436.03;;;9.47;98.73
75747;BME280;64363;52.198;21.020;2023-04-01T01:41:47;98441.75;;;9.55;98.19
75747;BME280;64363;52.198;21.020;2023-04-01T01:44:16;98443.22;;;9.61;97.56
75747;BME280;64363;52.198;21.020;2023-04-01T01:46:43;98444.16;;;9.60;97.19
75747;BME280;64363;52.198;21.020;2023-04-01T01:49:12;98447.38;;;9.51;97.79
75747;BME280;64363;52.198;21.020;2023-04-01T01:51:38;98449.56;;;9.74;96.84
75747;BME280;64363;52.198;21.020;2023-04-01T01:54:05;98443.19;;;9.76;95.48
75747;BME280;64363;52.198;21.020;2023-04-01T01:56:32;98444.84;;;9.93;94.77
75747;BME280;64363;52.198;21.020;2023-04-01T01:59:03;98441.09;;;9.81;95.61
75747;BME280;64363;52.198;21.020;2023-04-01T02:01:35;98446.06;;;9.58;96.58
75747;BME280;64363;52.198;21.020;2023-04-01T02:04:03;98432.78;;;9.58;96.48
75747;BME280;64363;52.198;21.020;2023-04-01T02:06:32;98438.78;;;9.75;95.06
75747;BME280;64363;52.198;21.020;2023-04-01T02:09:02;98432.25;;;9.81;94.90
75747;BME280;64363;52.198;21.020;2023-04-01T02:11:42;98419.69;;;9.69;94.83
75747;BME280;64363;52.198;21.020;2023-04-01T02:14:22;98421.75;;;9.64;95.25
75747;BME280;64363;52.198;21.020;2023-04-01T02:16:57;98417.41;;;9.63;94.80
75747;BME280;64363;52.198;21.020;2023-04-01T02:19:28;98417.41;;;9.47;95.79
75747;BME280;64363;52.198;21.020;2023-04-01T02:22:01;98416.19;;;9.38;96.32
75747;BME280;64363;52.198;21.020;2023-04-01T02:24:30;98413.56;;;9.53;95.44
75747;BME280;64363;52.198;21.020;2023-04-01T02:26:57;98406.34;;;9.55;95.22
75747;BME280;64363;52.198;21.020;2023-04-01T02:29:24;98404.63;;;9.54;95.78
75747;BME280;64363;52.198;21.020;2023-04-01T02:31:53;98404.22;;;9.46;96.34
75747;BME280;64363;52.198;21.020;2023-04-01T02:34:21;98406.22;;;9.42;96.07
75747;BME280;64363;52.198;21.020;2023-04-01T02:36:49;98403.22;;;9.32;96.89
75747;BME280;64363;52.198;21.020;2023-04-01T02:39:15;98402.81;;;9.24;97.14
75747;BME280;64363;52.198;21.020;2023-04-01T02:41:44;98395.28;;;9.17;97.72
75747;BME280;64363;52.198;21.020;2023-04-01T02:44:12;98393.66;;;9.14;97.84
75747;BME280;64363;52.198;21.020;2023-04-01T02:46:38;98401.97;;;9.08;98.20
75747;BME280;64363;52.198;21.020;2023-04-01T02:49:05;98406.09;;;8.98;98.85
75747;BME280;64363;52.198;21.020;2023-04-01T02:51:31;98406.44;;;8.92;99.40
75747;BME280;64363;52.198;21.020;2023-04-01T02:53:56;98406.00;;;8.84;99.94
75747;BME280;64363;52.198;21.020;2023-04-01T02:56:22;98401.31;;;8.89;99.98
75747;BME280;64363;52.198;21.020;2023-04-01T02:58:48;98417.44;;;8.86;100.00
75747;BME280;64363;52.198;21.020;2023-04-01T03:01:14;98407.47;;;8.89;100.00
75747;BME280;64363;52.198;21.020;2023-04-01T03:03:40;98411.25;;;8.85;100.00
75747;BME280;64363;52.198;21.020;2023-04-01T03:06:07;98414.09;;;8.82;100.00
75747;BME280;64363;52.198;21.020;2023-04-01T03:08:33;98429.75;;;8.87;100.00
75747;BME280;64363;52.198;21.020;2023-04-01T03:10:59;98422.63;;;8.87;100.00
75747;BME280;64363;52.198;21.020;2023-04-01T03:13:25;98432.94;;;8.93;99.75
75747;BME280;64363;52.198;21.020;2023-04-01T03:15:51;98429.16;;;8.98;98.95
75747;BME280;64363;52.198;21.020;2023-04-01T03:18:17;98422.81;;;9.00;98.88
75747;BME280;64363;52.198;21.020;2023-04-01T03:20:43;98425.47;;;9.00;98.50
75747;BME280;64363;52.198;21.020;2023-04-01T03:23:08;98430.44;;;9.06;98.55
75747;BME280;64363;52.198;21.020;2023-04-01T03:25:34;98428.06;;;9.02;98.62
75747;BME280;64363;52.198;21.020;2023-04-01T03:28:00;98426.81;;;9.07;98.41
75747;BME280;64363;52.198;21.020;2023-04-01T03:30:26;98433.25;;;9.03;97.99
75747;BME280;64363;52.198;21.020;2023-04-01T03:32:52;98439.88;;;8.96;98.86
75747;BME280;64363;52.198;21.020;2023-04-01T03:35:18;98435.78;;;8.90;99.40
75747;BME280;64363;52.198;21.020;2023-04-01T03:37:43;98436.47;;;8.94;98.96
75747;BME280;64363;52.198;21.020;2023-04-01T03:40:10;98436.97;;;8.85;99.47
75747;BME280;64363;52.198;21.020;2023-04-01T03:42:35;98438.50;;;8.89;99.11
75747;BME280;64363;52.198;21.020;2023-04-01T03:45:02;98440.22;;;8.90;99.16
75747;BME280;64363;52.198;21.020;2023-04-01T03:47:28;98440.91;;;8.93;98.85
75747;BME280;64363;52.198;21.020;2023-04-01T03:49:54;98447.16;;;8.92;98.97
75747;BME280;64363;52.198;21.020;2023-04-01T03:52:20;98452.47;;;8.92;98.69
75747;BME280;64363;52.198;21.020;2023-04-01T03:54:46;98459.75;;;8.89;98.84
75747;BME280;64363;52.198;21.020;2023-04-01T03:57:12;98464.59;;;8.98;98.16
75747;BME280;64363;52.198;21.020;2023-04-01T03:59:37;98470.22;;;8.92;98.65
75747;BME280;64363;52.198;21.020;2023-04-01T04:02:03;98471.78;;;8.96;98.48
75747;BME280;64363;52.198;21.020;2023-04-01T04:04:29;98467.25;;;8.98;98.33
75747;BME280;64363;52.198;21.020;2023-04-01T04:06:55;98470.03;;;8.95;98.62
75747;BME280;64363;52.198;21.020;2023-04-01T04:09:21;98468.00;;;9.00;98.28
75747;BME280;64363;52.198;21.020;2023-04-01T04:11:48;98472.19;;;9.04;98.14
75747;BME280;64363;52.198;21.020;2023-04-01T04:14:13;98468.94;;;8.99;97.69
75747;BME280;64363;52.198;21.020;2023-04-01T04:16:39;98473.50;;;8.97;97.83
75747;BME280;64363;52.198;21.020;2023-04-01T04:19:05;98469.09;;;8.96;98.45
75747;BME280;64363;52.198;21.020;2023-04-01T04:21:31;98480.78;;;9.09;98.30
75747;BME280;64363;52.198;21.020;2023-04-01T04:23:58;98485.16;;;9.10;97.18
75747;BME280;64363;52.198;21.020;2023-04-01T04:26:25;98482.59;;;9.09;97.58
75747;BME280;64363;52.198;21.020;2023-04-01T04:28:51;98499.41;;;9.09;97.07
75747;BME280;64363;52.198;21.020;2023-04-01T04:31:22;98483.34;;;9.11;97.42
75747;BME280;64363;52.198;21.020;2023-04-01T04:33:48;98487.53;;;9.15;96.80
75747;BME280;64363;52.198;21.020;2023-04-01T04:36:14;98497.00;;;9.20;96.17
75747;BME280;64363;52.198;21.020;2023-04-01T04:38:40;98484.81;;;9.16;95.76
75747;BME280;64363;52.198;21.020;2023-04-01T04:41:10;98492.09;;;9.13;95.92
75747;BME280;64363;52.198;21.020;2023-04-01T04:43:37;98489.00;;;9.20;95.54
75747;BME280;64363;52.198;21.020;2023-04-01T04:46:10;98495.81;;;9.10;95.56
75747;BME280;64363;52.198;21.020;2023-04-01T04:48:36;98488.41;;;9.15;95.48
75747;BME280;64363;52.198;21.020;2023-04-01T04:51:03;98490.91;;;9.18;94.48
75747;BME280;64363;52.198;21.020;2023-04-01T04:53:29;98493.72;;;9.15;94.77
75747;BME280;64363;52.198;21.020;2023-04-01T04:55:54;98496.56;;;9.12;94.76
75747;BME280;64363;52.198;21.020;2023-04-01T04:58:20;98492.34;;;9.08;95.03
75747;BME280;64363;52.198;21.020;2023-04-01T05:00:46;98492.34;;;9.08;94.83
75747;BME280;64363;52.198;21.020;2023-04-01T05:03:12;98495.44;;;9.01;94.98
75747;BME280;64363;52.198;21.020;2023-04-01T05:05:39;98495.25;;;9.04;95.30
75747;BME280;64363;52.198;21.020;2023-04-01T05:08:05;98496.56;;;8.97;95.50
75747;BME280;64363;52.198;21.020;2023-04-01T05:10:31;98496.63;;;8.95;95.44
75747;BME280;64363;52.198;21.020;2023-04-01T05:12:58;98496.31;;;9.01;95.34
75747;BME280;64363;52.198;21.020;2023-04-01T05:15:23;98497.06;;;9.03;95.48
75747;BME280;64363;52.198;21.020;2023-04-01T05:17:49;98500.50;;;9.05;94.79
75747;BME280;64363;52.198;21.020;2023-04-01T05:20:16;98498.28;;;9.13;95.67
75747;BME280;64363;52.198;21.020;2023-04-01T05:22:42;98507.56;;;9.22;94.33
75747;BME280;64363;52.198;21.020;2023-04-01T05:25:08;98498.34;;;9.12;94.60
75747;BME280;64363;52.198;21.020;2023-04-01T05:27:34;98496.63;;;9.11;94.67
75747;BME280;64363;52.198;21.020;2023-04-01T05:30:01;98504.47;;;9.14;94.08
75747;BME280;64363;52.198;21.020;2023-04-01T05:32:26;98496.75;;;9.09;94.42
75747;BME280;64363;52.198;21.020;2023-04-01T05:34:53;98495.50;;;9.15;93.55
75747;BME280;64363;52.198;21.020;2023-04-01T05:37:18;98507.81;;;9.17;93.80
75747;BME280;64363;52.198;21.020;2023-04-01T05:39:45;98511.41;;;9.16;93.83
75747;BME280;64363;52.198;21.020;2023-04-01T05:42:10;98500.59;;;9.19;93.22
75747;BME280;64363;52.198;21.020;2023-04-01T05:44:36;98510.63;;;9.14;93.37
75747;BME280;64363;52.198;21.020;2023-04-01T05:47:03;98508.47;;;9.05;93.95
75747;BME280;64363;52.198;21.020;2023-04-01T05:49:29;98515.34;;;9.09;94.31
75747;BME280;64363;52.198;21.020;2023-04-01T05:51:55;98509.00;;;9.12;93.71
75747;BME280;64363;52.198;21.020;2023-04-01T05:54:21;98504.22;;;9.18;93.74
75747;BME280;64363;52.198;21.020;2023-04-01T05:56:47;98514.31;;;9.27;92.99
75747;BME280;64363;52.198;21.020;2023-04-01T05:59:13;98513.97;;;9.33;92.03
75747;BME280;64363;52.198;21.020;2023-04-01T06:01:39;98519.53;;;9.45;92.12
75747;BME280;64363;52.198;21.020;2023-04-01T06:04:05;98517.13;;;9.56;91.92
75747;BME280;64363;52.198;21.020;2023-04-01T06:06:32;98512.31;;;9.62;91.78
75747;BME280;64363;52.198;21.020;2023-04-01T06:09:06;98515.06;;;9.61;90.99
75747;BME280;64363;52.198;21.020;2023-04-01T06:12:07;98515.56;;;9.67;90.66
75747;BME280;64363;52.198;21.020;2023-04-01T06:20:36;98522.84;;;9.79;89.97
75747;BME280;64363;52.198;21.020;2023-04-01T06:26:18;98528.75;;;9.84;89.53
75747;BME280;64363;52.198;21.020;2023-04-01T06:28:59;98523.84;;;9.93;90.21
75747;BME280;64363;52.198;21.020;2023-04-01T06:35:05;98531.75;;;9.94;89.94
75747;BME280;64363;52.198;21.020;2023-04-01T06:46:32;98532.72;;;9.77;90.78
75747;BME280;64363;52.198;21.020;2023-04-01T06:54:39;98526.72;;;10.04;89.29
75747;BME280;64363;52.198;21.020;2023-04-01T06:59:59;98527.41;;;10.07;89.02
75747;BME280;64363;52.198;21.020;2023-04-01T07:05:07;98535.00;;;10.15;89.22
75747;BME280;64363;52.198;21.020;2023-04-01T07:07:41;98526.47;;;10.08;88.86
75747;BME280;64363;52.198;21.020;2023-04-01T07:10:17;98531.94;;;10.21;88.83
75747;BME280;64363;52.198;21.020;2023-04-01T07:12:54;98533.75;;;10.20;88.09
75747;BME280;64363;52.198;21.020;2023-04-01T07:15:28;98535.38;;;10.07;88.80
75747;BME280;64363;52.198;21.020;2023-04-01T07:18:02;98522.00;;;10.09;88.50
75747;BME280;64363;52.198;21.020;2023-04-01T07:20:36;98530.50;;;10.15;88.84
75747;BME280;64363;52.198;21.020;2023-04-01T07:23:05;98533.84;;;10.03;88.90
75747;BME280;64363;52.198;21.020;2023-04-01T07:25:44;98534.00;;;9.86;90.13
75747;BME280;64363;52.198;21.020;2023-04-01T07:28:14;98533.47;;;9.79;90.42
75747;BME280;64363;52.198;21.020;2023-04-01T07:34:03;98533.16;;;9.70;90.59
75747;BME280;64363;52.198;21.020;2023-04-01T07:47:01;98540.13;;;10.18;88.76
75747;BME280;64363;52.198;21.020;2023-04-01T07:50:06;98532.84;;;10.36;88.69
75747;BME280;64363;52.198;21.020;2023-04-01T07:55:24;98536.63;;;10.31;87.68
75747;BME280;64363;52.198;21.020;2023-04-01T07:58:22;98537.81;;;10.56;86.90
75747;BME280;64363;52.198;21.020;2023-04-01T08:07:13;98544.88;;;10.43;86.93
75747;BME280;64363;52.198;21.020;2023-04-01T08:09:58;98541.63;;;10.52;85.65
75747;BME280;64363;52.198;21.020;2023-04-01T08:12:31;98541.25;;;10.72;85.87
75747;BME280;64363;52.198;21.020;2023-04-01T08:23:54;98551.00;;;10.87;83.72
75747;BME280;64363;52.198;21.020;2023-04-01T08:26:16;98556.63;;;10.83;83.16
75747;BME280;64363;52.198;21.020;2023-04-01T08:34:18;98562.06;;;10.95;82.91
75747;BME280;64363;52.198;21.020;2023-04-01T08:36:50;98560.81;;;10.87;83.49
75747;BME280;64363;52.198;21.020;2023-04-01T08:39:28;98550.81;;;10.90;83.38
75747;BME280;64363;52.198;21.020;2023-04-01T08:45:20;98563.09;;;10.78;83.59
75747;BME280;64363;52.198;21.020;2023-04-01T08:50:51;98569.09;;;10.82;83.63
75747;BME280;64363;52.198;21.020;2023-04-01T08:56:20;98571.13;;;10.49;84.20
75747;BME280;64363;52.198;21.020;2023-04-01T09:02:18;98569.25;;;10.51;82.59
75747;BME280;64363;52.198;21.020;2023-04-01T09:15:20;98575.09;;;11.14;78.30
75747;BME280;64363;52.198;21.020;2023-04-01T09:23:47;98574.78;;;10.76;80.32
75747;BME280;64363;52.198;21.020;2023-04-01T09:34:26;98582.09;;;10.58;81.91
75747;BME280;64363;52.198;21.020;2023-04-01T09:48:37;98603.41;;;10.13;85.98
75747;BME280;64363;52.198;21.020;2023-04-01T09:59:45;98599.53;;;10.34;85.68
75747;BME280;64363;52.198;21.020;2023-04-01T10:13:36;98607.75;;;10.75;84.71
75747;BME280;64363;52.198;21.020;2023-04-01T10:16:34;98607.66;;;10.91;84.63
75747;BME280;64363;52.198;21.020;2023-04-01T10:22:10;98609.81;;;10.84;83.69
75747;BME280;64363;52.198;21.020;2023-04-01T10:47:05;98608.31;;;11.08;81.09
75747;BME280;64363;52.198;21.020;2023-04-01T11:01:00;98613.63;;;10.66;82.19
75747;BME280;64363;52.198;21.020;2023-04-01T11:17:38;98618.22;;;10.92;79.33
75747;BME280;64363;52.198;21.020;2023-04-01T11:30:53;98616.09;;;12.09;74.43
75747;BME280;64363;52.198;21.020;2023-04-01T11:33:38;98608.59;;;12.01;74.62
75747;BME280;64363;52.198;21.020;2023-04-01T11:39:03;98616.97;;;12.09;74.32
75747;BME280;64363;52.198;21.020;2023-04-01T11:44:45;98609.84;;;12.62;74.00
75747;BME280;64363;52.198;21.020;2023-04-01T11:50:23;98617.78;;;12.76;74.21
75747;BME280;64363;52.198;21.020;2023-04-01T11:53:15;98613.81;;;12.69;73.75
75747;BME280;64363;52.198;21.020;2023-04-01T11:58:42;98609.91;;;12.48;75.85
75747;BME280;64363;52.198;21.020;2023-04-01T12:01:22;98613.09;;;12.28;76.20
75747;BME280;64363;52.198;21.020;2023-04-01T12:06:44;98617.53;;;12.14;77.78
75747;BME280;64363;52.198;21.020;2023-04-01T12:09:49;98612.28;;;11.86;76.71
75747;BME280;64363;52.198;21.020;2023-04-01T12:17:59;98615.81;;;12.13;73.04
75747;BME280;64363;52.198;21.020;2023-04-01T12:28:46;98613.75;;;12.83;67.99
75747;BME280;64363;52.198;21.020;2023-04-01T12:37:26;98631.94;;;12.91;66.50
75747;BME280;64363;52.198;21.020;2023-04-01T12:46:03;98633.19;;;13.74;63.73
75747;BME280;64363;52.198;21.020;2023-04-01T13:01:59;98624.78;;;14.51;62.19
75747;BME280;64363;52.198;21.020;2023-04-01T13:07:35;98624.22;;;14.35;63.09
75747;BME280;64363;52.198;21.020;2023-04-01T13:16:14;98636.34;;;12.92;66.64
75747;BME280;64363;52.198;21.020;2023-04-01T13:21:33;98646.50;;;12.47;69.10
75747;BME280;64363;52.198;21.020;2023-04-01T13:29:41;98648.47;;;12.04;71.43
75747;BME280;64363;52.198;21.020;2023-04-01T13:34:58;98650.59;;;11.99;72.11
75747;BME280;64363;52.198;21.020;2023-04-01T13:40:36;98663.59;;;11.77;74.72
75747;BME280;64363;52.198;21.020;2023-04-01T13:43:15;98667.66;;;11.68;76.28
75747;BME280;64363;52.198;21.020;2023-04-01T13:51:21;98688.84;;;11.15;82.57
75747;BME280;64363;52.198;21.020;2023-04-01T13:54:20;98693.47;;;11.11;83.18
75747;BME280;64363;52.198;21.020;2023-04-01T14:02:45;98700.72;;;11.09;83.37
75747;BME280;64363;52.198;21.020;2023-04-01T14:10:43;98692.19;;;11.33;83.49
75747;BME280;64363;52.198;21.020;2023-04-01T14:18:37;98700.66;;;11.53;82.53
75747;BME280;64363;52.198;21.020;2023-04-01T14:21:30;98702.59;;;11.51;82.14
75747;BME280;64363;52.198;21.020;2023-04-01T14:35:37;98715.38;;;11.02;83.67
75747;BME280;64363;52.198;21.020;2023-04-01T14:49:20;98726.00;;;10.88;82.14
75747;BME280;64363;52.198;21.020;2023-04-01T14:51:48;98741.97;;;10.74;83.13
75747;BME280;64363;52.198;21.020;2023-04-01T14:54:22;98741.09;;;10.73;83.44
75747;BME280;64363;52.198;21.020;2023-04-01T14:57:12;98740.25;;;10.73;83.10
75747;BME280;64363;52.198;21.020;2023-04-01T15:00:33;98741.97;;;10.74;83.09
75747;BME280;64363;52.198;21.020;2023-04-01T15:07:35;98761.75;;;10.70;83.56
75747;BME280;64363;52.198;21.020;2023-04-01T15:12:40;98772.00;;;10.62;82.87
75747;BME280;64363;52.198;21.020;2023-04-01T15:17:54;98769.59;;;10.42;82.30
75747;BME280;64363;52.198;21.020;2023-04-01T15:26:27;98785.47;;;10.27;84.69
75747;BME280;64363;52.198;21.020;2023-04-01T15:29:47;98802.44;;;10.26;85.16
75747;BME280;64363;52.198;21.020;2023-04-01T15:35:25;98809.50;;;10.10;85.61
75747;BME280;64363;52.198;21.020;2023-04-01T15:38:02;98809.31;;;9.98;85.03
75747;BME280;64363;52.198;21.020;2023-04-01T15:40:41;98805.00;;;9.95;85.60
75747;BME280;64363;52.198;21.020;2023-04-01T16:04:59;98843.25;;;9.77;85.43
75747;BME280;64363;52.198;21.020;2023-04-01T16:13:30;98857.19;;;9.82;85.01
75747;BME280;64363;52.198;21.020;2023-04-01T16:24:14;98868.44;;;9.87;85.49
75747;BME280;64363;52.198;21.020;2023-04-01T16:32:38;98874.97;;;9.81;85.42
75747;BME280;64363;52.198;21.020;2023-04-01T16:35:37;98892.75;;;9.81;85.54
75747;BME280;64363;52.198;21.020;2023-04-01T16:38:26;98896.78;;;9.71;85.79
75747;BME280;64363;52.198;21.020;2023-04-01T16:43:30;98912.06;;;9.67;85.61
75747;BME280;64363;52.198;21.020;2023-04-01T16:54:31;98931.72;;;9.65;84.63
75747;BME280;64363;52.198;21.020;2023-04-01T17:02:37;98945.34;;;9.59;84.69
75747;BME280;64363;52.198;21.020;2023-04-01T17:05:13;98953.16;;;9.45;83.99
75747;BME280;64363;52.198;21.020;2023-04-01T17:13:37;98958.00;;;9.36;84.23
75747;BME280;64363;52.198;21.020;2023-04-01T17:24:42;98971.19;;;9.21;85.03
75747;BME280;64363;52.198;21.020;2023-04-01T17:35:11;98992.88;;;9.30;85.06
75747;BME280;64363;52.198;21.020;2023-04-01T17:45:55;99009.56;;;9.34;84.67
75747;BME280;64363;52.198;21.020;2023-04-01T17:48:37;99013.84;;;9.36;84.38
75747;BME280;64363;52.198;21.020;2023-04-01T17:59:17;99029.47;;;9.25;86.05
75747;BME280;64363;52.198;21.020;2023-04-01T18:02:02;99032.91;;;9.27;85.82
75747;BME280;64363;52.198;21.020;2023-04-01T18:07:27;99045.91;;;9.33;85.64
75747;BME280;64363;52.198;21.020;2023-04-01T18:15:38;99059.72;;;9.23;86.79
75747;BME280;64363;52.198;21.020;2023-04-01T18:18:34;99061.03;;;9.14;86.21
75747;BME280;64363;52.198;21.020;2023-04-01T18:26:45;99070.34;;;9.04;84.94
75747;BME280;64363;52.198;21.020;2023-04-01T18:29:53;99076.38;;;8.89;85.38
75747;BME280;64363;52.198;21.020;2023-04-01T18:38:06;99090.91;;;9.01;85.27
75747;BME280;64363;52.198;21.020;2023-04-01T18:40:54;99096.38;;;8.98;85.74
75747;BME280;64363;52.198;21.020;2023-04-01T18:46:22;99100.25;;;8.90;84.68
75747;BME280;64363;52.198;21.020;2023-04-01T22:30:52;99350.44;;;7.68;84.11
75747;BME280;64363;52.198;21.020;2023-04-01T22:33:37;99352.09;;;7.71;84.12
75747;BME280;64363;52.198;21.020;2023-04-01T22:38:49;99365.19;;;7.75;83.93
75747;BME280;64363;52.198;21.020;2023-04-01T22:41:46;99367.91;;;7.74;83.76
75747;BME280;64363;52.198;21.020;2023-04-01T22:50:11;99372.03;;;7.58;83.82
75747;BME280;64363;52.198;21.020;2023-04-01T22:52:43;99373.88;;;7.56;83.62
75747;BME280;64363;52.198;21.020;2023-04-01T22:55:17;99371.44;;;7.49;83.62
75747;BME280;64363;52.198;21.020;2023-04-01T22:58:05;99372.94;;;7.57;83.03
75747;BME280;64363;52.198;21.020;2023-04-01T23:00:49;99378.66;;;7.46;82.75
75747;BME280;64363;52.198;21.020;2023-04-01T23:03:21;99377.06;;;7.40;82.38
75747;BME280;64363;52.198;21.020;2023-04-01T23:05:53;99387.72;;;7.39;82.83
75747;BME280;64363;52.198;21.020;2023-04-01T23:08:36;99388.28;;;7.48;82.46
75747;BME280;64363;52.198;21.020;2023-04-01T23:11:08;99383.75;;;7.50;82.11
75747;BME280;64363;52.198;21.020;2023-04-01T23:13:39;99384.75;;;7.48;82.07
75747;BME280;64363;52.198;21.020;2023-04-01T23:16:07;99384.56;;;7.54;82.03
75747;BME280;64363;52.198;21.020;2023-04-01T23:18:45;99388.16;;;7.51;82.05
75747;BME280;64363;52.198;21.020;2023-04-01T23:21:49;99395.66;;;7.39;82.91
75747;BME280;64363;52.198;21.020;2023-04-01T23:27:23;99399.00;;;7.45;82.91
75747;BME280;64363;52.198;21.020;2023-04-01T23:29:50;99407.09;;;7.41;81.67
75747;BME280;64363;52.198;21.020;2023-04-01T23:32:22;99409.91;;;7.36;81.41
75747;BME280;64363;52.198;21.020;2023-04-01T23:34:56;99418.88;;;7.32;81.20
75747;BME280;64363;52.198;21.020;2023-04-01T23:37:24;99415.31;;;7.33;81.49
75747;BME280;64363;52.198;21.020;2023-04-01T23:39:56;99425.34;;;7.24;81.67
75747;BME280;64363;52.198;21.020;2023-04-01T23:42:28;99427.97;;;7.25;81.26
75747;BME280;64363;52.198;21.020;2023-04-01T23:44:58;99422.59;;;7.27;81.55
75747;BME280;64363;52.198;21.020;2023-04-01T23:47:33;99427.75;;;7.31;81.44
75747;BME280;64363;52.198;21.020;2023-04-01T23:50:03;99431.53;;;7.24;81.16
75747;BME280;64363;52.198;21.020;2023-04-01T23:52:36;99431.38;;;7.29;81.58
75747;BME280;64363;52.198;21.020;2023-04-01T23:55:32;99433.13;;;7.30;80.70
